Time;durP1;ratioP1;P1;durP2;ratioP2;P2;SDS_P1;SDS_P2;PMS_P1;PMS_P2;Temp;Humidity;BMP_temperature;BMP_pressure;BME280_temperature;BME280_humidity;BME280_pressure;Samples;Min_cycle;Max_cycle;Signal;HPM_P1;HPM_P2
2021/06/26 00:01:41;;;;;;;2.10;0.30;;;12.80;99.90;;;;;;5067285;28;20397;-88
2021/06/26 00:04:10;;;;;;;1.05;0.30;;;12.90;99.90;;;;;;5071215;28;20381;-87
2021/06/26 00:06:37;;;;;;;0.80;0.30;;;12.90;99.90;;;;;;5064739;28;20535;-85
2021/06/26 00:09:05;;;;;;;0.57;0.30;;;12.90;99.90;;;;;;5069266;28;20887;-84
2021/06/26 00:11:32;;;;;;;1.75;0.30;;;13.00;99.90;;;;;;5053747;28;20408;-87
2021/06/26 00:13:59;;;;;;;3.92;0.40;;;13.10;99.90;;;;;;5058948;28;20457;-85
2021/06/26 00:16:26;;;;;;;10.32;0.93;;;13.30;99.90;;;;;;5051020;28;20403;-83
2021/06/26 00:18:53;;;;;;;27.80;2.15;;;13.50;99.90;;;;;;5057676;28;20389;-86
2021/06/26 00:21:20;;;;;;;3.03;0.43;;;14.20;99.90;;;;;;5064061;28;20397;-86
2021/06/26 00:23:47;;;;;;;5.05;0.70;;;15.30;99.90;;;;;;5055499;28;20462;-85
2021/06/26 00:26:14;;;;;;;4.15;0.80;;;16.00;97.80;;;;;;5050006;28;20800;-85
2021/06/26 00:28:41;;;;;;;1.70;0.40;;;15.90;97.50;;;;;;5051076;28;20942;-84
2021/06/26 00:31:08;;;;;;;2.42;0.68;;;15.60;97.20;;;;;;5057152;28;20807;-84
2021/06/26 00:33:35;;;;;;;0.50;0.40;;;15.00;98.30;;;;;;5061277;28;20484;-84
2021/06/26 00:36:03;;;;;;;2.92;0.43;;;14.60;98.70;;;;;;5058384;28;20403;-86
2021/06/26 00:38:30;;;;;;;3.45;0.70;;;14.30;99.90;;;;;;5052465;28;20897;-84
2021/06/26 00:40:57;;;;;;;2.05;0.57;;;14.10;99.90;;;;;;5050312;28;20403;-82
2021/06/26 00:43:24;;;;;;;1.23;0.40;;;14.00;99.90;;;;;;5050604;28;20407;-85
2021/06/26 00:45:51;;;;;;;1.63;0.40;;;13.90;99.90;;;;;;5059926;28;20941;-84
2021/06/26 00:48:18;;;;;;;1.67;0.40;;;13.80;99.90;;;;;;5056430;28;20481;-87
2021/06/26 00:50:45;;;;;;;1.02;0.45;;;13.70;99.90;;;;;;5057003;28;20521;-85
2021/06/26 00:53:12;;;;;;;0.60;0.30;;;13.80;99.90;;;;;;5055184;28;20771;-84
2021/06/26 00:55:39;;;;;;;0.95;0.30;;;13.80;99.90;;;;;;5049090;28;20392;-84
2021/06/26 00:58:07;;;;;;;3.10;0.60;;;13.80;99.90;;;;;;5052276;28;20400;-86
2021/06/26 01:00:34;;;;;;;1.35;0.35;;;13.90;99.90;;;;;;5061852;28;20878;-86
2021/06/26 01:03:01;;;;;;;0.60;0.30;;;13.80;99.90;;;;;;5069390;28;20465;-84
2021/06/26 01:05:28;;;;;;;1.38;0.30;;;13.80;99.90;;;;;;5069715;28;20366;-85
2021/06/26 01:07:56;;;;;;;1.63;0.50;;;13.90;99.90;;;;;;5064388;28;20550;-84
2021/06/26 01:10:23;;;;;;;1.40;0.20;;;13.90;99.90;;;;;;5053166;28;20388;-84
2021/06/26 01:12:50;;;;;;;1.13;0.40;;;13.80;99.90;;;;;;5056949;28;20439;-87
2021/06/26 01:15:18;;;;;;;1.90;0.35;;;13.90;99.90;;;;;;5051528;28;20387;-85
2021/06/26 01:17:46;;;;;;;1.45;0.40;;;13.90;99.90;;;;;;5065582;28;21973;-86
2021/06/26 01:20:14;;;;;;;1.15;0.30;;;14.00;99.90;;;;;;5057493;28;20380;-86
2021/06/26 01:22:43;;;;;;;1.70;0.28;;;14.10;99.90;;;;;;5059156;28;20378;-84
2021/06/26 01:25:14;;;;;;;1.30;0.30;;;14.20;99.90;;;;;;5052787;28;20853;-84
2021/06/26 01:27:43;;;;;;;1.45;0.30;;;14.20;99.90;;;;;;5049076;28;20391;-87
2021/06/26 01:30:12;;;;;;;0.73;0.22;;;14.20;99.90;;;;;;5049755;28;20415;-85
2021/06/26 01:32:39;;;;;;;1.45;0.32;;;14.30;99.90;;;;;;5059183;28;20396;-85
2021/06/26 01:35:08;;;;;;;0.50;0.20;;;14.30;99.90;;;;;;5065860;28;20417;-86
2021/06/26 01:37:38;;;;;;;0.50;0.20;;;14.30;99.90;;;;;;5056743;28;20847;-85
2021/06/26 01:40:06;;;;;;;0.77;0.28;;;14.40;99.90;;;;;;5053406;28;20396;-84
2021/06/26 01:42:33;;;;;;;1.05;0.20;;;14.40;99.90;;;;;;5060682;28;20523;-85
2021/06/26 01:45:00;;;;;;;2.03;0.35;;;14.50;99.50;;;;;;5056061;28;20395;-86
2021/06/26 01:47:27;;;;;;;1.00;0.20;;;14.50;99.30;;;;;;5062028;28;20756;-87
2021/06/26 01:49:54;;;;;;;3.10;0.35;;;14.60;98.20;;;;;;5054669;28;20392;-85
2021/06/26 01:52:21;;;;;;;0.63;0.20;;;14.60;98.80;;;;;;5055662;28;20442;-84
2021/06/26 01:54:49;;;;;;;1.45;0.10;;;14.60;98.40;;;;;;5049411;28;20746;-86
2021/06/26 01:57:16;;;;;;;3.90;0.28;;;14.60;97.50;;;;;;5058257;28;20486;-86
2021/06/26 01:59:43;;;;;;;0.70;0.30;;;14.80;97.90;;;;;;5050784;28;20399;-85
2021/06/26 02:02:10;;;;;;;0.50;0.20;;;14.80;97.60;;;;;;5048815;28;20439;-83
2021/06/26 02:04:37;;;;;;;0.50;0.20;;;14.90;97.10;;;;;;5052012;28;20389;-82
2021/06/26 02:07:04;;;;;;;0.43;0.10;;;14.90;97.50;;;;;;5061821;28;20390;-81
2021/06/26 02:09:31;;;;;;;0.88;0.30;;;14.90;97.90;;;;;;5055641;28;20751;-81
2021/06/26 02:11:58;;;;;;;0.50;0.20;;;15.00;97.20;;;;;;5050680;28;20411;-81
2021/06/26 02:14:25;;;;;;;0.38;0.20;;;15.10;96.40;;;;;;5048974;28;20403;-83
2021/06/26 02:16:52;;;;;;;1.15;0.20;;;15.10;95.90;;;;;;5057178;28;20756;-81
2021/06/26 02:19:18;;;;;;;1.30;0.20;;;15.20;95.60;;;;;;5058240;28;20425;-83
2021/06/26 02:21:45;;;;;;;0.52;0.20;;;15.30;95.60;;;;;;5058574;28;20381;-84
2021/06/26 02:24:13;;;;;;;0.60;0.20;;;15.30;95.50;;;;;;5058242;28;20393;-81
2021/06/26 02:26:40;;;;;;;0.10;0.10;;;15.30;95.40;;;;;;5053859;28;20462;-82
2021/06/26 02:29:07;;;;;;;0.35;0.20;;;15.40;95.00;;;;;;5077298;28;20486;-84
2021/06/26 02:31:34;;;;;;;0.75;0.30;;;15.40;95.20;;;;;;5081863;28;21146;-83
2021/06/26 02:34:01;;;;;;;0.28;0.10;;;15.50;94.70;;;;;;5077105;28;20862;-84
2021/06/26 02:36:28;;;;;;;1.70;0.22;;;15.60;93.70;;;;;;5085271;28;20413;-85
2021/06/26 02:38:55;;;;;;;0.52;0.10;;;15.70;93.90;;;;;;5059783;28;20390;-83
2021/06/26 02:41:22;;;;;;;0.50;0.20;;;15.70;93.90;;;;;;5074564;28;20951;-83
2021/06/26 02:43:50;;;;;;;0.60;0.20;;;15.80;94.30;;;;;;5054237;28;20467;-85
2021/06/26 02:46:17;;;;;;;0.60;0.10;;;16.00;93.50;;;;;;5051562;28;20445;-83
2021/06/26 02:48:44;;;;;;;0.10;0.10;;;16.00;93.90;;;;;;5052807;28;20392;-83
2021/06/26 02:51:11;;;;;;;0.25;0.10;;;15.90;92.50;;;;;;5065430;28;20895;-83
2021/06/26 02:53:38;;;;;;;2.60;0.20;;;15.70;92.60;;;;;;5064213;28;20410;-82
2021/06/26 02:56:05;;;;;;;0.50;0.10;;;15.70;93.00;;;;;;5055441;28;20390;-84
2021/06/26 02:58:32;;;;;;;0.63;0.10;;;15.70;94.30;;;;;;5060382;28;20392;-83
2021/06/26 03:01:00;;;;;;;0.68;0.20;;;15.70;93.20;;;;;;5072184;28;20537;-82
2021/06/26 03:03:27;;;;;;;0.20;0.10;;;15.60;93.20;;;;;;5054836;28;20404;-84
2021/06/26 03:05:54;;;;;;;0.38;0.20;;;15.40;92.50;;;;;;5064521;28;20412;-82
2021/06/26 03:08:21;;;;;;;1.05;0.20;;;15.30;93.70;;;;;;5070675;28;21223;-81
2021/06/26 03:10:48;;;;;;;0.32;0.28;;;15.20;93.60;;;;;;5071476;28;20389;-82
2021/06/26 03:13:15;;;;;;;0.30;0.20;;;15.20;94.00;;;;;;5068348;28;20444;-82
2021/06/26 03:15:44;;;;;;;0.40;0.20;;;15.30;93.90;;;;;;5060777;28;20894;-82
2021/06/26 03:18:11;;;;;;;0.83;0.03;;;15.40;94.10;;;;;;5051895;28;20792;-82
2021/06/26 03:20:38;;;;;;;0.20;0.20;;;15.50;94.20;;;;;;5061523;28;20391;-84
2021/06/26 03:23:05;;;;;;;0.55;0.20;;;15.60;93.50;;;;;;5051556;28;20380;-82
2021/06/26 03:25:33;;;;;;;1.15;0.20;;;15.60;93.50;;;;;;5053856;28;20393;-83
2021/06/26 03:28:03;;;;;;;0.20;0.20;;;15.60;93.90;;;;;;5054900;28;20498;-83
2021/06/26 03:30:30;;;;;;;0.75;0.20;;;15.70;93.20;;;;;;5052374;28;20383;-83
2021/06/26 03:32:57;;;;;;;0.90;0.28;;;15.70;94.00;;;;;;5050822;28;20443;-82
2021/06/26 03:35:24;;;;;;;0.50;0.30;;;15.70;93.00;;;;;;5059653;28;20781;-83
2021/06/26 03:37:51;;;;;;;1.10;0.30;;;15.70;92.30;;;;;;5071657;28;20424;-84
2021/06/26 03:40:18;;;;;;;1.55;0.22;;;15.70;92.60;;;;;;5058929;28;20437;-83
2021/06/26 03:42:45;;;;;;;0.57;0.30;;;15.70;92.20;;;;;;5051107;28;20427;-83
2021/06/26 03:45:12;;;;;;;0.60;0.20;;;15.70;92.10;;;;;;5053150;28;20399;-84
2021/06/26 03:47:39;;;;;;;0.30;0.15;;;15.70;92.30;;;;;;5052913;28;20387;-84
2021/06/26 03:50:07;;;;;;;1.50;0.20;;;15.70;91.40;;;;;;5052815;28;20387;-83
2021/06/26 03:52:35;;;;;;;0.13;0.13;;;15.80;91.00;;;;;;5060494;28;20853;-86
2021/06/26 03:55:01;;;;;;;1.80;0.20;;;15.80;91.40;;;;;;5051354;28;20380;-85
2021/06/26 03:57:28;;;;;;;0.70;0.10;;;15.80;91.50;;;;;;5050927;28;20434;-85
2021/06/26 03:59:55;;;;;;;0.65;0.20;;;15.80;92.00;;;;;;5051366;28;20399;-85
2021/06/26 04:02:22;;;;;;;0.75;0.22;;;15.80;91.80;;;;;;5053727;28;20541;-83
2021/06/26 04:04:49;;;;;;;0.70;0.10;;;15.90;92.10;;;;;;5062774;28;20723;-84
2021/06/26 04:07:16;;;;;;;0.52;0.22;;;15.90;91.50;;;;;;5049971;28;20395;-83
2021/06/26 04:09:43;;;;;;;0.70;0.30;;;15.90;91.90;;;;;;5047256;28;20391;-85
2021/06/26 04:12:10;;;;;;;0.60;0.13;;;16.00;91.20;;;;;;5055284;28;20395;-84
2021/06/26 04:14:37;;;;;;;0.40;0.20;;;16.00;91.30;;;;;;5049397;28;21021;-87
2021/06/26 04:17:04;;;;;;;1.25;0.22;;;16.00;90.80;;;;;;5057561;28;20457;-89
2021/06/26 04:19:32;;;;;;;0.68;0.25;;;16.00;91.50;;;;;;5059612;28;20397;-84
2021/06/26 04:21:59;;;;;;;0.57;0.20;;;16.00;90.90;;;;;;5052590;28;20813;-84
2021/06/26 04:24:26;;;;;;;0.63;0.20;;;16.00;91.00;;;;;;5060190;28;20875;-87
2021/06/26 04:26:53;;;;;;;1.52;0.20;;;16.00;91.30;;;;;;5054857;28;20395;-88
2021/06/26 04:29:20;;;;;;;0.77;0.20;;;16.00;90.70;;;;;;5051628;28;20557;-89
2021/06/26 04:31:47;;;;;;;0.53;0.23;;;16.00;91.40;;;;;;5050243;28;20386;-87
2021/06/26 04:34:14;;;;;;;0.80;0.20;;;15.90;90.80;;;;;;5062762;28;20409;-85
2021/06/26 04:36:41;;;;;;;0.80;0.28;;;15.80;90.90;;;;;;5068773;28;20417;-86
2021/06/26 04:39:09;;;;;;;0.85;0.20;;;15.80;90.70;;;;;;5059710;28;20384;-88
2021/06/26 04:41:37;;;;;;;0.82;0.22;;;15.70;90.70;;;;;;5057955;28;20472;-88
2021/06/26 04:44:05;;;;;;;0.80;0.10;;;15.70;90.90;;;;;;5069924;28;20379;-89
2021/06/26 04:46:32;;;;;;;1.10;0.10;;;15.60;91.10;;;;;;5049796;28;20730;-86
2021/06/26 04:48:59;;;;;;;0.50;0.13;;;15.50;90.10;;;;;;5050105;28;20403;-88
2021/06/26 04:51:26;;;;;;;0.25;0.10;;;15.40;91.30;;;;;;5069088;28;20393;-86
2021/06/26 04:53:53;;;;;;;0.50;0.10;;;15.40;91.70;;;;;;5069759;28;20493;-86
2021/06/26 04:56:20;;;;;;;1.83;0.28;;;15.30;91.60;;;;;;5067356;28;20390;-87
2021/06/26 04:58:47;;;;;;;1.60;0.30;;;15.30;91.00;;;;;;5068555;28;20435;-83
2021/06/26 05:01:14;;;;;;;0.50;0.30;;;15.30;92.10;;;;;;5049893;28;20372;-89
2021/06/26 05:03:41;;;;;;;0.70;0.15;;;15.30;91.50;;;;;;5059882;28;20389;-88
2021/06/26 05:06:08;;;;;;;0.77;0.22;;;15.20;92.10;;;;;;5069855;28;20370;-88
2021/06/26 05:08:35;;;;;;;0.90;0.30;;;15.20;92.60;;;;;;5070287;28;20499;-89
2021/06/26 05:11:02;;;;;;;0.30;0.20;;;15.20;92.80;;;;;;5056834;28;20959;-86
2021/06/26 05:13:30;;;;;;;0.77;0.40;;;15.10;92.30;;;;;;5069478;28;20568;-85
2021/06/26 05:15:57;;;;;;;0.60;0.37;;;15.10;92.10;;;;;;5069604;28;20941;-85
2021/06/26 05:18:27;;;;;;;0.40;0.30;;;15.10;92.60;;;;;;5069540;28;20382;-87
2021/06/26 05:20:55;;;;;;;1.50;0.28;;;15.00;91.90;;;;;;5057387;28;20384;-89
2021/06/26 05:23:22;;;;;;;0.30;0.30;;;14.90;91.20;;;;;;5049556;28;20463;-87
2021/06/26 05:25:50;;;;;;;0.20;0.20;;;14.90;92.10;;;;;;5055000;28;20382;-87
2021/06/26 05:28:17;;;;;;;1.10;0.20;;;15.00;92.50;;;;;;5069449;28;20382;-87
2021/06/26 05:30:44;;;;;;;0.20;0.10;;;14.90;92.60;;;;;;5069391;28;20370;-86
2021/06/26 05:33:11;;;;;;;1.00;0.20;;;14.80;92.30;;;;;;5069271;28;20421;-84
2021/06/26 05:35:38;;;;;;;0.90;0.40;;;14.70;92.70;;;;;;5069391;28;20479;-86
2021/06/26 05:38:05;;;;;;;0.50;0.28;;;14.60;93.00;;;;;;5052954;28;20449;-87
2021/06/26 05:40:32;;;;;;;0.45;0.30;;;14.50;93.00;;;;;;5048971;28;20503;-85
2021/06/26 05:42:59;;;;;;;2.22;0.50;;;14.50;93.30;;;;;;5050015;28;20473;-86
2021/06/26 05:45:26;;;;;;;0.40;0.32;;;14.30;93.40;;;;;;5049175;28;20863;-86
2021/06/26 05:47:53;;;;;;;2.20;0.60;;;14.20;93.20;;;;;;5049329;28;20387;-88
2021/06/26 05:50:20;;;;;;;2.00;0.40;;;14.20;93.70;;;;;;5049139;28;20476;-86
2021/06/26 05:52:52;;;;;;;3.80;0.73;;;14.20;94.30;;;;;;5048420;28;21003;-84
2021/06/26 05:55:19;;;;;;;2.70;0.60;;;14.10;94.60;;;;;;5051170;28;20396;-83
2021/06/26 05:57:47;;;;;;;1.98;1.00;;;14.10;94.30;;;;;;5074641;28;20362;-85
2021/06/26 06:00:16;;;;;;;0.70;0.70;;;14.00;94.40;;;;;;5075853;28;20424;-85
2021/06/26 06:02:44;;;;;;;1.73;1.05;;;14.00;95.20;;;;;;5075725;28;20951;-85
2021/06/26 06:05:14;;;;;;;1.00;0.90;;;13.90;95.80;;;;;;5075753;28;20381;-85
2021/06/26 06:07:43;;;;;;;1.23;0.73;;;13.90;96.30;;;;;;5071690;28;21088;-86
2021/06/26 06:10:12;;;;;;;0.63;0.60;;;13.90;96.60;;;;;;5063748;28;20374;-86
2021/06/26 06:12:40;;;;;;;1.83;0.95;;;13.90;96.30;;;;;;5075516;28;20470;-84
2021/06/26 06:15:09;;;;;;;1.65;0.55;;;13.90;95.90;;;;;;5076738;28;20926;-84
2021/06/26 06:17:37;;;;;;;1.27;0.50;;;13.90;96.20;;;;;;5075498;28;20370;-86
2021/06/26 06:20:06;;;;;;;1.10;0.52;;;13.80;95.70;;;;;;5075534;28;20382;-84
2021/06/26 06:22:33;;;;;;;2.60;0.90;;;13.80;95.80;;;;;;5060882;28;20727;-85
2021/06/26 06:25:02;;;;;;;1.73;1.00;;;13.70;96.30;;;;;;5055489;28;20437;-85
2021/06/26 06:27:28;;;;;;;0.80;0.73;;;13.70;96.60;;;;;;5073974;28;20385;-84
2021/06/26 06:29:55;;;;;;;1.70;0.88;;;13.60;96.70;;;;;;5075399;28;20465;-85
2021/06/26 06:32:22;;;;;;;2.03;0.50;;;13.60;96.90;;;;;;5075268;28;20418;-85
2021/06/26 06:34:49;;;;;;;1.17;0.60;;;13.50;97.10;;;;;;5066142;28;20841;-85
2021/06/26 06:37:17;;;;;;;1.02;0.55;;;13.50;97.20;;;;;;5055612;28;20466;-86
2021/06/26 06:39:44;;;;;;;1.00;0.70;;;13.40;97.40;;;;;;5055805;28;20449;-85
2021/06/26 06:42:11;;;;;;;0.88;0.60;;;13.40;98.00;;;;;;5056257;28;20439;-85
2021/06/26 06:44:38;;;;;;;0.85;0.70;;;13.40;97.40;;;;;;5055194;28;20390;-85
2021/06/26 06:47:05;;;;;;;0.50;0.50;;;13.30;97.30;;;;;;5054978;28;20739;-85
2021/06/26 06:49:32;;;;;;;1.67;0.45;;;13.20;97.70;;;;;;5055341;28;20383;-85
2021/06/26 06:51:59;;;;;;;1.50;0.60;;;13.20;98.10;;;;;;5055222;28;20801;-86
2021/06/26 06:54:26;;;;;;;1.38;0.52;;;13.20;97.10;;;;;;5055299;28;20885;-86
2021/06/26 06:56:53;;;;;;;1.33;0.65;;;13.20;97.20;;;;;;5070132;28;20385;-85
2021/06/26 06:59:20;;;;;;;1.30;0.97;;;13.10;97.50;;;;;;5074187;28;20386;-85
2021/06/26 07:01:47;;;;;;;1.15;0.90;;;13.10;97.70;;;;;;5075076;28;20698;-84
2021/06/26 07:04:14;;;;;;;1.20;1.10;;;13.00;98.30;;;;;;5075220;28;20435;-86
2021/06/26 07:06:41;;;;;;;1.42;1.33;;;12.90;98.30;;;;;;5075212;28;20366;-84
2021/06/26 07:09:08;;;;;;;1.40;1.30;;;12.80;98.70;;;;;;5069720;28;20876;-85
2021/06/26 07:11:35;;;;;;;1.80;1.55;;;12.70;99.00;;;;;;5052958;28;20393;-84
2021/06/26 07:14:02;;;;;;;2.30;1.27;;;12.60;99.00;;;;;;5050241;28;20399;-84
2021/06/26 07:16:29;;;;;;;1.80;0.90;;;12.60;99.30;;;;;;5051755;28;20367;-85
2021/06/26 07:18:56;;;;;;;1.77;0.70;;;12.50;99.40;;;;;;5051852;28;20384;-85
2021/06/26 07:21:23;;;;;;;1.10;0.77;;;12.50;99.20;;;;;;5059434;28;20382;-85
2021/06/26 07:23:50;;;;;;;1.40;1.15;;;12.40;99.40;;;;;;5071737;28;20389;-84
2021/06/26 07:26:17;;;;;;;1.05;0.95;;;12.40;99.50;;;;;;5062782;28;20437;-85
2021/06/26 07:28:44;;;;;;;1.35;0.88;;;12.30;99.90;;;;;;5053438;28;20372;-85
2021/06/26 07:31:11;;;;;;;1.25;0.98;;;12.10;99.90;;;;;;5051090;28;20870;-85
2021/06/26 07:33:38;;;;;;;1.07;0.80;;;12.10;99.90;;;;;;5051409;28;20414;-85
2021/06/26 07:36:06;;;;;;;1.30;1.20;;;12.00;99.90;;;;;;5051507;28;20375;-86
2021/06/26 07:38:33;;;;;;;1.75;1.10;;;11.90;99.90;;;;;;5051843;28;20411;-85
2021/06/26 07:41:00;;;;;;;2.00;1.27;;;11.80;99.90;;;;;;5051010;28;20392;-84
2021/06/26 07:43:27;;;;;;;1.15;1.10;;;11.70;99.90;;;;;;5068868;28;20746;-84
2021/06/26 07:45:54;;;;;;;2.20;1.15;;;11.70;99.90;;;;;;5063981;28;20440;-84
2021/06/26 07:48:21;;;;;;;1.60;1.50;;;11.60;99.90;;;;;;5068881;28;20394;-84
2021/06/26 07:50:50;;;;;;;1.47;1.10;;;11.50;99.90;;;;;;5071257;28;20465;-85
2021/06/26 07:53:18;;;;;;;1.50;1.37;;;11.50;99.90;;;;;;5054263;28;20544;-88
2021/06/26 07:55:51;;;;;;;1.97;1.40;;;11.40;99.90;;;;;;5063658;28;20380;-84
2021/06/26 07:58:24;;;;;;;1.40;1.30;;;11.40;99.90;;;;;;5081480;28;20449;-85
2021/06/26 08:00:53;;;;;;;1.75;1.60;;;11.40;99.90;;;;;;5068277;28;20387;-84
2021/06/26 08:03:21;;;;;;;2.53;2.20;;;11.30;99.90;;;;;;5056035;28;20758;-84
2021/06/26 08:05:48;;;;;;;2.13;1.67;;;11.20;99.90;;;;;;5051180;28;20445;-87
2021/06/26 08:08:16;;;;;;;1.73;1.55;;;11.20;99.90;;;;;;5055986;28;20431;-87
2021/06/26 08:10:44;;;;;;;2.47;1.65;;;11.20;99.90;;;;;;5050903;28;20786;-87
2021/06/26 08:13:14;;;;;;;1.50;1.30;;;11.10;99.90;;;;;;5050764;28;20418;-87
2021/06/26 08:15:43;;;;;;;1.48;1.27;;;11.10;99.90;;;;;;5049470;28;20383;-85
2021/06/26 08:18:11;;;;;;;1.52;1.35;;;11.00;99.90;;;;;;5052993;28;20382;-85
2021/06/26 08:20:40;;;;;;;4.10;2.47;;;11.00;99.90;;;;;;5050423;28;20384;-85
2021/06/26 08:23:07;;;;;;;1.63;1.33;;;11.10;99.90;;;;;;5059768;28;20381;-86
2021/06/26 08:25:35;;;;;;;1.95;1.33;;;11.00;99.90;;;;;;5058514;28;20375;-85
2021/06/26 08:28:02;;;;;;;1.90;1.50;;;11.00;99.90;;;;;;5062424;28;20382;-84
2021/06/26 08:30:30;;;;;;;1.67;1.58;;;10.90;99.90;;;;;;5053656;28;20375;-85
2021/06/26 08:32:58;;;;;;;2.97;1.58;;;10.90;99.90;;;;;;5054348;28;20498;-84
2021/06/26 08:35:25;;;;;;;2.55;2.30;;;10.90;99.90;;;;;;5050489;28;20395;-85
2021/06/26 08:37:52;;;;;;;3.47;3.05;;;10.80;99.90;;;;;;5064720;28;20710;-85
2021/06/26 08:40:20;;;;;;;3.35;2.80;;;10.70;99.90;;;;;;5070704;28;20378;-87
2021/06/26 08:42:48;;;;;;;3.70;3.00;;;10.70;99.90;;;;;;5075825;28;20386;-86
2021/06/26 08:45:17;;;;;;;3.58;2.42;;;10.60;99.90;;;;;;5066667;28;20487;-85
2021/06/26 08:47:56;;;;;;;5.38;3.17;;;10.50;99.90;;;;;;5061002;28;20396;-87
2021/06/26 08:50:27;;;;;;;4.07;2.88;;;10.50;99.90;;;;;;5065557;28;20382;-85
2021/06/26 08:52:55;;;;;;;5.60;3.13;;;10.50;99.90;;;;;;5050285;28;20449;-88
2021/06/26 08:55:22;;;;;;;4.20;2.80;;;10.50;99.90;;;;;;5051658;28;20380;-86
2021/06/26 08:57:50;;;;;;;3.38;2.83;;;10.50;99.90;;;;;;5059150;28;20489;-87
2021/06/26 09:00:20;;;;;;;3.45;3.15;;;10.40;99.90;;;;;;5052820;28;20387;-86
2021/06/26 09:02:48;;;;;;;4.93;4.43;;;10.40;99.90;;;;;;5049916;28;20755;-86
2021/06/26 09:05:26;;;;;;;4.70;4.20;;;10.30;99.90;;;;;;5051840;28;20391;-86
2021/06/26 09:07:53;;;;;;;4.72;3.95;;;10.30;99.90;;;;;;5060060;28;20485;-86
2021/06/26 09:10:23;;;;;;;9.50;6.40;;;10.20;99.90;;;;;;5054258;28;20402;-83
2021/06/26 09:12:51;;;;;;;6.13;4.25;;;10.20;99.90;;;;;;5062377;28;20420;-88
2021/06/26 09:15:26;;;;;;;3.97;3.20;;;10.10;99.90;;;;;;5062797;28;20750;-86
2021/06/26 09:17:55;;;;;;;2.83;2.13;;;10.10;99.90;;;;;;5062946;28;20398;-87
2021/06/26 09:20:33;;;;;;;2.95;2.30;;;10.10;99.90;;;;;;5059580;28;20803;-85
2021/06/26 09:23:03;;;;;;;6.57;5.55;;;10.20;99.90;;;;;;5059068;28;20461;-88
2021/06/26 09:25:35;;;;;;;2.45;2.22;;;10.10;99.90;;;;;;5067637;28;20754;-88
2021/06/26 09:28:09;;;;;;;4.40;1.90;;;10.10;99.90;;;;;;5080063;28;20404;-85
2021/06/26 09:30:36;;;;;;;2.30;2.10;;;10.10;99.90;;;;;;5060344;28;20463;-87
2021/06/26 09:33:16;;;;;;;2.85;2.17;;;10.10;99.90;;;;;;5060513;28;20503;-87
2021/06/26 09:35:59;;;;;;;3.17;1.92;;;10.20;99.90;;;;;;5070105;28;20374;-87
2021/06/26 09:38:26;;;;;;;2.20;2.00;;;10.20;99.90;;;;;;5049841;28;20947;-89
2021/06/26 09:40:53;;;;;;;2.53;1.90;;;10.10;99.90;;;;;;5053046;28;20406;-87
2021/06/26 09:43:31;;;;;;;4.82;2.40;;;10.10;99.90;;;;;;5064078;28;20398;-88
2021/06/26 09:46:05;;;;;;;3.55;3.03;;;10.10;99.90;;;;;;5056074;28;20392;-87
2021/06/26 09:48:32;;;;;;;4.15;2.50;;;10.10;99.90;;;;;;5073068;28;21059;-87
2021/06/26 09:51:00;;;;;;;5.88;3.17;;;10.20;99.90;;;;;;5051404;28;20388;-86
2021/06/26 09:53:28;;;;;;;5.43;3.38;;;10.10;99.90;;;;;;5046675;28;20432;-87
2021/06/26 09:55:55;;;;;;;4.65;3.17;;;10.10;99.90;;;;;;5059759;28;20384;-86
2021/06/26 09:58:22;;;;;;;5.55;4.15;;;10.10;99.90;;;;;;5066285;28;20386;-83
2021/06/26 10:00:49;;;;;;;5.30;3.53;;;10.10;99.90;;;;;;5057707;28;20403;-85
2021/06/26 10:03:20;;;;;;;5.10;3.70;;;10.00;99.90;;;;;;5045623;28;20414;-85
2021/06/26 10:05:47;;;;;;;6.30;3.70;;;10.00;99.90;;;;;;5053545;28;20911;-85
2021/06/26 10:08:16;;;;;;;4.50;3.53;;;9.90;99.90;;;;;;5063262;28;20526;-86
2021/06/26 10:10:43;;;;;;;7.18;4.95;;;9.90;99.90;;;;;;5066404;28;20385;-85
2021/06/26 10:13:14;;;;;;;9.48;6.13;;;9.80;99.90;;;;;;5066067;28;20418;-86
2021/06/26 10:15:41;;;;;;;4.78;4.20;;;9.80;99.90;;;;;;5050041;28;20423;-84
2021/06/26 10:18:11;;;;;;;5.45;3.80;;;9.80;99.90;;;;;;5066514;28;20397;-85
2021/06/26 10:20:39;;;;;;;3.67;2.97;;;9.80;99.90;;;;;;5058774;28;20395;-84
2021/06/26 10:23:06;;;;;;;4.40;2.40;;;9.80;99.90;;;;;;5045868;28;20396;-86
2021/06/26 10:25:39;;;;;;;2.53;2.30;;;9.80;99.90;;;;;;5045801;28;20379;-86
2021/06/26 10:28:19;;;;;;;2.72;2.15;;;9.80;99.90;;;;;;5047350;28;20803;-87
2021/06/26 10:31:10;;;;;;;1.77;1.40;;;9.80;99.90;;;;;;5059124;28;20704;-88
2021/06/26 10:33:38;;;;;;;1.57;1.47;;;9.70;99.90;;;;;;5063014;28;20513;-87
2021/06/26 10:36:05;;;;;;;1.70;1.40;;;9.70;99.90;;;;;;5063232;28;20793;-86
2021/06/26 10:38:45;;;;;;;2.30;1.50;;;9.70;99.90;;;;;;5067389;28;20386;-88
2021/06/26 10:41:21;;;;;;;1.60;1.40;;;9.70;99.90;;;;;;5061264;28;20398;-86
2021/06/26 10:44:04;;;;;;;1.20;1.10;;;9.70;99.90;;;;;;5053675;28;20899;-86
2021/06/26 10:46:31;;;;;;;1.35;1.15;;;9.70;99.90;;;;;;5058337;28;20427;-86
2021/06/26 10:49:04;;;;;;;1.30;1.17;;;9.70;99.90;;;;;;5051262;28;20394;-88
2021/06/26 10:51:37;;;;;;;1.27;1.05;;;9.70;99.90;;;;;;5057794;28;20457;-87
2021/06/26 10:54:18;;;;;;;1.92;1.42;;;9.70;99.90;;;;;;5067190;28;20410;-87
2021/06/26 10:56:48;;;;;;;3.00;1.30;;;9.60;99.90;;;;;;5067505;28;20396;-88
2021/06/26 10:59:17;;;;;;;1.40;1.30;;;9.60;99.90;;;;;;5068156;28;20426;-84
2021/06/26 11:02:05;;;;;;;2.00;1.50;;;9.60;99.90;;;;;;5048956;28;20394;-85
2021/06/26 11:04:33;;;;;;;1.70;1.25;;;9.60;99.90;;;;;;5056080;28;20393;-85
2021/06/26 11:07:09;;;;;;;2.30;1.30;;;9.60;99.90;;;;;;5060916;28;20395;-88
2021/06/26 11:09:40;;;;;;;1.30;1.20;;;9.50;99.90;;;;;;5059988;28;20385;-87
2021/06/26 11:12:13;;;;;;;1.25;1.15;;;9.60;99.90;;;;;;5051552;28;20405;-85
2021/06/26 11:14:54;;;;;;;1.35;1.20;;;9.50;99.90;;;;;;5066809;28;20436;-86
2021/06/26 11:17:23;;;;;;;1.65;1.30;;;9.50;99.90;;;;;;5066976;28;20405;-86
2021/06/26 11:19:52;;;;;;;1.65;1.30;;;9.50;99.90;;;;;;5058464;28;20402;-86
2021/06/26 11:22:19;;;;;;;0.90;0.80;;;9.40;99.90;;;;;;5061741;28;20418;-85
2021/06/26 11:24:47;;;;;;;1.40;1.30;;;9.40;99.90;;;;;;5060279;28;20449;-84
2021/06/26 11:27:19;;;;;;;1.30;1.20;;;9.30;99.90;;;;;;5049575;28;20388;-87
2021/06/26 11:29:49;;;;;;;2.20;1.60;;;9.30;99.90;;;;;;5046963;28;20388;-86
2021/06/26 11:32:24;;;;;;;1.65;1.30;;;9.30;99.90;;;;;;5048647;28;20396;-86
2021/06/26 11:34:55;;;;;;;1.55;1.30;;;9.20;99.90;;;;;;5048574;28;20410;-87
2021/06/26 11:37:23;;;;;;;2.58;1.40;;;9.20;99.90;;;;;;5060789;28;20388;-87
2021/06/26 11:39:51;;;;;;;1.98;1.70;;;9.30;99.90;;;;;;5061163;28;20421;-86
2021/06/26 11:42:20;;;;;;;1.55;1.33;;;9.30;99.90;;;;;;5063993;28;20485;-85
2021/06/26 11:44:53;;;;;;;2.20;1.37;;;9.30;99.90;;;;;;5066207;28;20562;-86
2021/06/26 11:47:26;;;;;;;1.58;1.20;;;9.30;99.90;;;;;;5060154;28;20386;-86
2021/06/26 11:49:53;;;;;;;1.13;1.02;;;9.40;99.90;;;;;;5066614;28;20433;-84
2021/06/26 11:52:20;;;;;;;2.75;1.20;;;9.40;99.90;;;;;;5064323;28;20429;-84
2021/06/26 11:54:47;;;;;;;3.00;1.10;;;9.50;99.90;;;;;;5053331;28;20433;-84
2021/06/26 11:57:14;;;;;;;1.25;1.15;;;9.50;99.90;;;;;;5052803;28;20383;-87
2021/06/26 11:59:45;;;;;;;2.65;1.50;;;9.50;99.90;;;;;;5058354;28;20498;-86
2021/06/26 12:02:13;;;;;;;1.80;1.30;;;9.50;99.90;;;;;;5070310;28;20483;-84
2021/06/26 12:04:41;;;;;;;2.50;1.77;;;9.50;99.90;;;;;;5070113;28;20463;-84
2021/06/26 12:07:09;;;;;;;2.17;1.60;;;9.50;99.90;;;;;;5070436;28;20912;-84
2021/06/26 12:09:41;;;;;;;1.50;1.40;;;9.50;99.90;;;;;;5069079;28;20382;-85
2021/06/26 12:12:08;;;;;;;2.05;1.42;;;9.50;99.90;;;;;;5057431;28;20398;-84
2021/06/26 12:14:37;;;;;;;2.10;1.37;;;9.50;99.90;;;;;;5057534;28;20770;-84
2021/06/26 12:17:09;;;;;;;2.67;1.50;;;9.50;99.90;;;;;;5070699;28;20457;-84
2021/06/26 12:19:37;;;;;;;1.65;1.10;;;9.50;99.90;;;;;;5070476;28;20371;-83
2021/06/26 12:22:06;;;;;;;1.40;1.13;;;9.50;99.90;;;;;;5052539;28;20406;-84
2021/06/26 12:24:41;;;;;;;1.80;1.08;;;9.50;99.90;;;;;;5050366;28;20372;-84
2021/06/26 12:27:22;;;;;;;2.08;1.27;;;9.50;99.90;;;;;;5055183;28;20400;-84
2021/06/26 12:29:58;;;;;;;0.82;0.82;;;9.50;99.90;;;;;;5068115;28;20397;-84
2021/06/26 12:32:30;;;;;;;1.17;0.93;;;9.50;99.90;;;;;;5049291;28;20399;-84
2021/06/26 12:34:57;;;;;;;2.10;1.02;;;9.50;99.90;;;;;;5050030;28;20445;-83
2021/06/26 12:37:40;;;;;;;1.58;1.00;;;9.40;99.90;;;;;;5055477;28;20370;-85
2021/06/26 12:40:30;;;;;;;1.20;1.00;;;9.30;99.90;;;;;;5051074;28;20470;-84
2021/06/26 12:43:33;;;;;;;1.27;0.93;;;9.30;99.90;;;;;;5054583;28;20472;-82
2021/06/26 12:46:00;;;;;;;1.45;0.80;;;9.20;99.90;;;;;;5045952;28;20845;-83
2021/06/26 12:48:36;;;;;;;1.30;0.90;;;9.20;99.90;;;;;;5053410;28;20390;-82
2021/06/26 12:53:38;;;;;;;1.08;0.80;;;9.20;99.90;;;;;;5068742;28;20404;-82
2021/06/26 12:56:09;;;;;;;1.27;0.90;;;9.20;99.90;;;;;;5065835;28;20386;-82
2021/06/26 12:58:37;;;;;;;1.80;0.80;;;9.20;99.90;;;;;;5059100;28;20873;-82